sensor_id;sensor_type;location;lat;lon;timestamp;P1;durP1;ratioP1;P2;durP2;ratioP2
58306;SDS011;44116;50.884;4.768;2023-04-03T00:03:24;11.1;;;6.0;;
58306;SDS011;44116;50.884;4.768;2023-04-03T00:05:24;12.5;;;6.2;;
58306;SDS011;44116;50.884;4.768;2023-04-03T00:07:23;10.1;;;6.6;;
58306;SDS011;44116;50.884;4.768;2023-04-03T00:09:23;9.3;;;6.5;;
58306;SDS011;44116;50.884;4.768;2023-04-03T00:11:23;9.0;;;5.8;;
58306;SDS011;44116;50.884;4.768;2023-04-03T00:13:22;11.1;;;6.4;;
58306;SDS011;44116;50.884;4.768;2023-04-03T00:15:21;9.5;;;6.0;;
58306;SDS011;44116;50.884;4.768;2023-04-03T00:17:21;10.8;;;6.4;;
58306;SDS011;44116;50.884;4.768;2023-04-03T00:19:20;11.9;;;6.6;;
58306;SDS011;44116;50.884;4.768;2023-04-03T00:21:20;9.6;;;6.2;;
58306;SDS011;44116;50.884;4.768;2023-04-03T00:23:19;9.7;;;6.3;;
58306;SDS011;44116;50.884;4.768;2023-04-03T00:25:19;11.5;;;6.0;;
58306;SDS011;44116;50.884;4.768;2023-04-03T00:27:18;9.6;;;5.7;;
58306;SDS011;44116;50.884;4.768;2023-04-03T00:29:18;9.9;;;5.9;;
58306;SDS011;44116;50.884;4.768;2023-04-03T00:31:17;9.0;;;5.4;;
58306;SDS011;44116;50.884;4.768;2023-04-03T00:33:17;8.7;;;6.1;;
58306;SDS011;44116;50.884;4.768;2023-04-03T00:35:16;9.4;;;6.0;;
58306;SDS011;44116;50.884;4.768;2023-04-03T00:37:16;12.9;;;6.3;;
58306;SDS011;44116;50.884;4.768;2023-04-03T00:39:15;10.2;;;5.9;;
58306;SDS011;44116;50.884;4.768;2023-04-03T00:41:15;10.6;;;6.5;;
58306;SDS011;44116;50.884;4.768;2023-04-03T00:43:16;9.8;;;6.1;;
58306;SDS011;44116;50.884;4.768;2023-04-03T00:45:26;10.0;;;6.2;;
58306;SDS011;44116;50.884;4.768;2023-04-03T00:47:16;8.4;;;6.0;;
58306;SDS011;44116;50.884;4.768;2023-04-03T00:49:13;8.4;;;5.5;;
58306;SDS011;44116;50.884;4.768;2023-04-03T00:51:14;9.4;;;6.6;;
58306;SDS011;44116;50.884;4.768;2023-04-03T00:53:14;11.0;;;6.4;;
58306;SDS011;44116;50.884;4.768;2023-04-03T00:57:11;11.5;;;6.2;;
58306;SDS011;44116;50.884;4.768;2023-04-03T00:59:13;8.7;;;5.8;;
58306;SDS011;44116;50.884;4.768;2023-04-03T01:01:12;8.8;;;6.2;;
58306;SDS011;44116;50.884;4.768;2023-04-03T01:03:09;8.3;;;5.7;;
58306;SDS011;44116;50.884;4.768;2023-04-03T01:05:09;10.5;;;6.0;;
58306;SDS011;44116;50.884;4.768;2023-04-03T01:07:11;11.0;;;6.7;;
58306;SDS011;44116;50.884;4.768;2023-04-03T01:09:08;10.9;;;5.6;;
58306;SDS011;44116;50.884;4.768;2023-04-03T01:11:07;8.1;;;6.1;;
58306;SDS011;44116;50.884;4.768;2023-04-03T01:13:18;8.5;;;5.9;;
58306;SDS011;44116;50.884;4.768;2023-04-03T01:15:09;10.3;;;6.6;;
58306;SDS011;44116;50.884;4.768;2023-04-03T01:19:06;11.3;;;6.0;;
58306;SDS011;44116;50.884;4.768;2023-04-03T01:25:03;9.5;;;5.8;;
58306;SDS011;44116;50.884;4.768;2023-04-03T01:27:05;9.3;;;6.4;;
58306;SDS011;44116;50.884;4.768;2023-04-03T01:29:03;9.2;;;6.0;;
58306;SDS011;44116;50.884;4.768;2023-04-03T01:31:06;8.3;;;5.5;;
58306;SDS011;44116;50.884;4.768;2023-04-03T01:33:02;10.2;;;6.1;;
58306;SDS011;44116;50.884;4.768;2023-04-03T01:35:01;8.9;;;5.7;;
58306;SDS011;44116;50.884;4.768;2023-04-03T01:37:00;8.9;;;6.0;;
58306;SDS011;44116;50.884;4.768;2023-04-03T01:39:00;10.4;;;6.3;;
58306;SDS011;44116;50.884;4.768;2023-04-03T01:40:59;9.8;;;5.9;;
58306;SDS011;44116;50.884;4.768;2023-04-03T01:42:59;10.7;;;6.0;;
58306;SDS011;44116;50.884;4.768;2023-04-03T01:44:58;12.7;;;6.2;;
58306;SDS011;44116;50.884;4.768;2023-04-03T01:46:58;10.1;;;6.0;;
58306;SDS011;44116;50.884;4.768;2023-04-03T01:48:57;9.9;;;6.1;;
58306;SDS011;44116;50.884;4.768;2023-04-03T01:50:57;9.5;;;5.9;;
58306;SDS011;44116;50.884;4.768;2023-04-03T01:52:56;8.7;;;5.2;;
58306;SDS011;44116;50.884;4.768;2023-04-03T01:54:56;8.7;;;5.6;;
58306;SDS011;44116;50.884;4.768;2023-04-03T01:56:55;7.4;;;5.8;;
58306;SDS011;44116;50.884;4.768;2023-04-03T01:58:55;9.4;;;5.2;;
58306;SDS011;44116;50.884;4.768;2023-04-03T02:00:54;9.0;;;5.5;;
58306;SDS011;44116;50.884;4.768;2023-04-03T02:02:54;7.8;;;5.4;;
58306;SDS011;44116;50.884;4.768;2023-04-03T02:04:53;8.8;;;6.0;;
58306;SDS011;44116;50.884;4.768;2023-04-03T02:06:53;8.9;;;5.9;;
58306;SDS011;44116;50.884;4.768;2023-04-03T02:08:52;8.8;;;5.8;;
58306;SDS011;44116;50.884;4.768;2023-04-03T02:12:51;11.5;;;5.7;;
58306;SDS011;44116;50.884;4.768;2023-04-03T02:14:50;8.2;;;5.8;;
58306;SDS011;44116;50.884;4.768;2023-04-03T02:16:50;7.5;;;5.2;;
58306;SDS011;44116;50.884;4.768;2023-04-03T02:18:49;7.5;;;5.1;;
58306;SDS011;44116;50.884;4.768;2023-04-03T02:20:49;8.0;;;5.4;;
58306;SDS011;44116;50.884;4.768;2023-04-03T02:22:48;7.7;;;5.0;;
58306;SDS011;44116;50.884;4.768;2023-04-03T02:24:48;7.5;;;5.2;;
58306;SDS011;44116;50.884;4.768;2023-04-03T02:28:47;8.6;;;5.9;;
58306;SDS011;44116;50.884;4.768;2023-04-03T02:30:46;7.1;;;5.2;;
58306;SDS011;44116;50.884;4.768;2023-04-03T02:32:46;8.4;;;5.5;;
58306;SDS011;44116;50.884;4.768;2023-04-03T02:34:45;7.1;;;5.1;;
58306;SDS011;44116;50.884;4.768;2023-04-03T02:36:44;9.2;;;5.6;;
58306;SDS011;44116;50.884;4.768;2023-04-03T02:38:44;8.8;;;5.5;;
58306;SDS011;44116;50.884;4.768;2023-04-03T02:40:44;7.6;;;5.4;;
58306;SDS011;44116;50.884;4.768;2023-04-03T02:42:43;7.2;;;5.6;;
58306;SDS011;44116;50.884;4.768;2023-04-03T02:44:42;9.4;;;5.5;;
58306;SDS011;44116;50.884;4.768;2023-04-03T02:46:42;7.4;;;5.2;;
58306;SDS011;44116;50.884;4.768;2023-04-03T02:48:41;9.1;;;5.5;;
58306;SDS011;44116;50.884;4.768;2023-04-03T02:50:41;8.1;;;5.3;;
58306;SDS011;44116;50.884;4.768;2023-04-03T02:52:40;8.6;;;5.8;;
58306;SDS011;44116;50.884;4.768;2023-04-03T02:54:40;7.5;;;5.7;;
58306;SDS011;44116;50.884;4.768;2023-04-03T02:56:40;9.3;;;6.0;;
58306;SDS011;44116;50.884;4.768;2023-04-03T02:58:39;7.0;;;5.7;;
58306;SDS011;44116;50.884;4.768;2023-04-03T03:00:38;9.1;;;5.8;;
58306;SDS011;44116;50.884;4.768;2023-04-03T03:02:38;8.6;;;6.1;;
58306;SDS011;44116;50.884;4.768;2023-04-03T03:04:37;8.6;;;6.5;;
58306;SDS011;44116;50.884;4.768;2023-04-03T03:06:36;8.9;;;6.2;;
58306;SDS011;44116;50.884;4.768;2023-04-03T03:08:37;10.3;;;6.0;;
58306;SDS011;44116;50.884;4.768;2023-04-03T03:10:36;8.3;;;6.2;;
58306;SDS011;44116;50.884;4.768;2023-04-03T03:14:34;9.6;;;6.5;;
58306;SDS011;44116;50.884;4.768;2023-04-03T03:16:34;9.1;;;6.8;;
58306;SDS011;44116;50.884;4.768;2023-04-03T03:18:34;9.7;;;6.2;;
58306;SDS011;44116;50.884;4.768;2023-04-03T03:20:33;8.3;;;6.1;;
58306;SDS011;44116;50.884;4.768;2023-04-03T03:22:33;9.2;;;5.9;;
58306;SDS011;44116;50.884;4.768;2023-04-03T03:24:32;8.8;;;6.2;;
58306;SDS011;44116;50.884;4.768;2023-04-03T03:26:31;7.6;;;6.1;;
58306;SDS011;44116;50.884;4.768;2023-04-03T03:28:31;9.0;;;6.4;;
58306;SDS011;44116;50.884;4.768;2023-04-03T03:30:30;10.9;;;7.6;;
58306;SDS011;44116;50.884;4.768;2023-04-03T03:32:30;12.2;;;7.0;;
58306;SDS011;44116;50.884;4.768;2023-04-03T03:34:29;9.0;;;6.7;;
58306;SDS011;44116;50.884;4.768;2023-04-03T03:36:28;10.5;;;7.3;;
58306;SDS011;44116;50.884;4.768;2023-04-03T03:38:28;9.5;;;7.1;;
58306;SDS011;44116;50.884;4.768;2023-04-03T03:42:27;9.8;;;7.2;;
58306;SDS011;44116;50.884;4.768;2023-04-03T03:44:26;11.3;;;7.1;;
58306;SDS011;44116;50.884;4.768;2023-04-03T03:46:26;9.7;;;7.4;;
58306;SDS011;44116;50.884;4.768;2023-04-03T03:48:25;10.5;;;7.2;;
58306;SDS011;44116;50.884;4.768;2023-04-03T03:50:25;11.0;;;7.3;;
58306;SDS011;44116;50.884;4.768;2023-04-03T03:52:24;9.5;;;7.0;;
58306;SDS011;44116;50.884;4.768;2023-04-03T03:54:24;11.1;;;7.2;;
58306;SDS011;44116;50.884;4.768;2023-04-03T03:56:23;10.1;;;7.5;;
58306;SDS011;44116;50.884;4.768;2023-04-03T03:58:23;11.5;;;7.6;;
58306;SDS011;44116;50.884;4.768;2023-04-03T04:00:22;12.1;;;8.0;;
58306;SDS011;44116;50.884;4.768;2023-04-03T04:02:21;12.0;;;7.4;;
58306;SDS011;44116;50.884;4.768;2023-04-03T04:04:21;11.8;;;7.6;;
58306;SDS011;44116;50.884;4.768;2023-04-03T04:06:20;10.7;;;7.5;;
58306;SDS011;44116;50.884;4.768;2023-04-03T04:08:20;10.7;;;8.1;;
58306;SDS011;44116;50.884;4.768;2023-04-03T04:10:19;12.8;;;8.2;;
58306;SDS011;44116;50.884;4.768;2023-04-03T04:12:19;11.5;;;7.9;;
58306;SDS011;44116;50.884;4.768;2023-04-03T04:14:18;11.2;;;8.1;;
58306;SDS011;44116;50.884;4.768;2023-04-03T04:16:18;13.0;;;8.5;;
58306;SDS011;44116;50.884;4.768;2023-04-03T04:18:17;12.7;;;8.6;;
58306;SDS011;44116;50.884;4.768;2023-04-03T04:22:16;11.1;;;8.0;;
58306;SDS011;44116;50.884;4.768;2023-04-03T04:24:16;11.9;;;8.3;;
58306;SDS011;44116;50.884;4.768;2023-04-03T04:26:15;11.8;;;8.4;;
58306;SDS011;44116;50.884;4.768;2023-04-03T04:28:15;10.4;;;8.0;;
58306;SDS011;44116;50.884;4.768;2023-04-03T04:30:14;12.4;;;8.5;;
58306;SDS011;44116;50.884;4.768;2023-04-03T04:32:14;13.6;;;9.0;;
58306;SDS011;44116;50.884;4.768;2023-04-03T04:34:13;12.4;;;8.7;;
58306;SDS011;44116;50.884;4.768;2023-04-03T04:36:12;11.5;;;8.8;;
58306;SDS011;44116;50.884;4.768;2023-04-03T04:38:12;13.0;;;8.2;;
58306;SDS011;44116;50.884;4.768;2023-04-03T04:40:11;14.3;;;8.7;;
58306;SDS011;44116;50.884;4.768;2023-04-03T04:42:11;11.4;;;8.6;;
58306;SDS011;44116;50.884;4.768;2023-04-03T04:44:10;14.1;;;9.0;;
58306;SDS011;44116;50.884;4.768;2023-04-03T04:46:10;14.2;;;8.7;;
58306;SDS011;44116;50.884;4.768;2023-04-03T04:48:09;14.4;;;9.1;;
58306;SDS011;44116;50.884;4.768;2023-04-03T04:50:09;11.8;;;8.5;;
58306;SDS011;44116;50.884;4.768;2023-04-03T04:54:07;14.3;;;9.1;;
58306;SDS011;44116;50.884;4.768;2023-04-03T04:56:07;15.3;;;9.0;;
58306;SDS011;44116;50.884;4.768;2023-04-03T04:58:06;13.2;;;8.9;;
58306;SDS011;44116;50.884;4.768;2023-04-03T05:02:05;13.0;;;9.1;;
58306;SDS011;44116;50.884;4.768;2023-04-03T05:04:05;11.1;;;8.8;;
58306;SDS011;44116;50.884;4.768;2023-04-03T05:06:05;13.6;;;9.5;;
58306;SDS011;44116;50.884;4.768;2023-04-03T05:08:04;14.1;;;9.4;;
58306;SDS011;44116;50.884;4.768;2023-04-03T05:10:04;12.8;;;8.9;;
58306;SDS011;44116;50.884;4.768;2023-04-03T05:12:03;15.7;;;9.0;;
58306;SDS011;44116;50.884;4.768;2023-04-03T05:14:02;13.3;;;9.5;;
58306;SDS011;44116;50.884;4.768;2023-04-03T05:16:02;14.5;;;9.3;;
58306;SDS011;44116;50.884;4.768;2023-04-03T05:18:01;11.8;;;9.4;;
58306;SDS011;44116;50.884;4.768;2023-04-03T05:20:01;13.7;;;9.7;;
58306;SDS011;44116;50.884;4.768;2023-04-03T05:22:00;12.9;;;9.0;;
58306;SDS011;44116;50.884;4.768;2023-04-03T05:24:00;13.5;;;9.3;;
58306;SDS011;44116;50.884;4.768;2023-04-03T05:25:59;12.3;;;9.2;;
58306;SDS011;44116;50.884;4.768;2023-04-03T05:27:58;13.5;;;9.5;;
58306;SDS011;44116;50.884;4.768;2023-04-03T05:29:58;13.4;;;9.0;;
58306;SDS011;44116;50.884;4.768;2023-04-03T05:31:57;12.8;;;9.3;;
58306;SDS011;44116;50.884;4.768;2023-04-03T05:33:57;14.4;;;9.9;;
58306;SDS011;44116;50.884;4.768;2023-04-03T05:36:02;12.9;;;9.6;;
58306;SDS011;44116;50.884;4.768;2023-04-03T05:37:56;15.0;;;10.0;;
58306;SDS011;44116;50.884;4.768;2023-04-03T05:39:57;14.6;;;9.3;;
58306;SDS011;44116;50.884;4.768;2023-04-03T05:41:56;16.0;;;10.7;;
58306;SDS011;44116;50.884;4.768;2023-04-03T05:43:54;15.5;;;9.7;;
58306;SDS011;44116;50.884;4.768;2023-04-03T05:45:54;12.1;;;9.1;;
58306;SDS011;44116;50.884;4.768;2023-04-03T05:47:53;14.4;;;10.1;;
58306;SDS011;44116;50.884;4.768;2023-04-03T05:49:53;13.3;;;10.2;;
58306;SDS011;44116;50.884;4.768;2023-04-03T05:51:52;14.4;;;9.7;;
58306;SDS011;44116;50.884;4.768;2023-04-03T05:53:56;15.3;;;9.8;;
58306;SDS011;44116;50.884;4.768;2023-04-03T05:55:51;14.6;;;10.4;;
58306;SDS011;44116;50.884;4.768;2023-04-03T05:57:50;15.7;;;10.2;;
58306;SDS011;44116;50.884;4.768;2023-04-03T05:59:50;15.2;;;10.3;;
58306;SDS011;44116;50.884;4.768;2023-04-03T06:01:49;14.4;;;10.6;;
58306;SDS011;44116;50.884;4.768;2023-04-03T06:03:49;15.2;;;10.7;;
58306;SDS011;44116;50.884;4.768;2023-04-03T06:05:48;14.7;;;10.6;;
58306;SDS011;44116;50.884;4.768;2023-04-03T06:07:48;15.3;;;10.7;;
58306;SDS011;44116;50.884;4.768;2023-04-03T06:09:48;16.1;;;10.9;;
58306;SDS011;44116;50.884;4.768;2023-04-03T06:11:47;15.7;;;11.3;;
58306;SDS011;44116;50.884;4.768;2023-04-03T06:13:46;14.6;;;10.6;;
58306;SDS011;44116;50.884;4.768;2023-04-03T06:15:46;15.7;;;10.7;;
58306;SDS011;44116;50.884;4.768;2023-04-03T06:17:45;19.1;;;11.9;;
58306;SDS011;44116;50.884;4.768;2023-04-03T06:19:46;18.6;;;12.0;;
58306;SDS011;44116;50.884;4.768;2023-04-03T06:21:44;15.0;;;11.3;;
58306;SDS011;44116;50.884;4.768;2023-04-03T06:23:44;15.8;;;11.0;;
58306;SDS011;44116;50.884;4.768;2023-04-03T06:25:43;15.7;;;11.7;;
58306;SDS011;44116;50.884;4.768;2023-04-03T06:27:43;13.8;;;11.1;;
58306;SDS011;44116;50.884;4.768;2023-04-03T06:29:42;18.0;;;12.3;;
58306;SDS011;44116;50.884;4.768;2023-04-03T06:31:41;17.2;;;11.6;;
58306;SDS011;44116;50.884;4.768;2023-04-03T06:33:41;18.5;;;12.7;;
58306;SDS011;44116;50.884;4.768;2023-04-03T06:35:40;15.6;;;11.8;;
58306;SDS011;44116;50.884;4.768;2023-04-03T06:37:40;17.3;;;12.1;;
58306;SDS011;44116;50.884;4.768;2023-04-03T06:39:40;16.5;;;11.6;;
58306;SDS011;44116;50.884;4.768;2023-04-03T06:41:39;15.7;;;11.9;;
58306;SDS011;44116;50.884;4.768;2023-04-03T06:43:38;14.6;;;11.7;;
58306;SDS011;44116;50.884;4.768;2023-04-03T06:45:38;15.2;;;11.6;;
58306;SDS011;44116;50.884;4.768;2023-04-03T06:49:37;18.4;;;12.6;;
58306;SDS011;44116;50.884;4.768;2023-04-03T06:51:36;21.0;;;12.0;;
58306;SDS011;44116;50.884;4.768;2023-04-03T06:53:36;16.9;;;12.8;;
58306;SDS011;44116;50.884;4.768;2023-04-03T06:55:35;15.7;;;11.8;;
58306;SDS011;44116;50.884;4.768;2023-04-03T06:57:35;17.0;;;11.6;;
58306;SDS011;44116;50.884;4.768;2023-04-03T06:59:35;17.5;;;12.0;;
58306;SDS011;44116;50.884;4.768;2023-04-03T07:01:34;16.2;;;11.5;;
58306;SDS011;44116;50.884;4.768;2023-04-03T07:03:33;16.4;;;11.6;;
58306;SDS011;44116;50.884;4.768;2023-04-03T07:05:33;17.3;;;11.9;;
58306;SDS011;44116;50.884;4.768;2023-04-03T07:07:32;15.3;;;11.3;;
58306;SDS011;44116;50.884;4.768;2023-04-03T07:09:32;12.9;;;10.8;;
58306;SDS011;44116;50.884;4.768;2023-04-03T07:11:31;14.6;;;10.7;;
58306;SDS011;44116;50.884;4.768;2023-04-03T07:13:32;16.7;;;11.2;;
58306;SDS011;44116;50.884;4.768;2023-04-03T07:15:31;15.4;;;11.6;;
58306;SDS011;44116;50.884;4.768;2023-04-03T07:17:30;15.7;;;10.6;;
58306;SDS011;44116;50.884;4.768;2023-04-03T07:19:30;14.0;;;10.1;;
58306;SDS011;44116;50.884;4.768;2023-04-03T07:21:29;13.8;;;10.5;;
58306;SDS011;44116;50.884;4.768;2023-04-03T07:27:28;14.9;;;10.8;;
58306;SDS011;44116;50.884;4.768;2023-04-03T07:29:27;14.6;;;10.4;;
58306;SDS011;44116;50.884;4.768;2023-04-03T07:31:26;13.5;;;9.7;;
58306;SDS011;44116;50.884;4.768;2023-04-03T07:33:27;14.4;;;10.1;;
58306;SDS011;44116;50.884;4.768;2023-04-03T07:35:26;13.6;;;9.6;;
58306;SDS011;44116;50.884;4.768;2023-04-03T07:37:25;13.8;;;9.0;;
58306;SDS011;44116;50.884;4.768;2023-04-03T07:39:25;16.7;;;9.5;;
58306;SDS011;44116;50.884;4.768;2023-04-03T07:41:24;14.8;;;8.9;;
58306;SDS011;44116;50.884;4.768;2023-04-03T07:43:24;11.9;;;8.6;;
58306;SDS011;44116;50.884;4.768;2023-04-03T07:47:23;12.7;;;7.8;;
58306;SDS011;44116;50.884;4.768;2023-04-03T07:49:22;13.9;;;8.5;;
58306;SDS011;44116;50.884;4.768;2023-04-03T07:51:22;11.8;;;7.9;;
58306;SDS011;44116;50.884;4.768;2023-04-03T07:53:21;13.9;;;8.7;;
58306;SDS011;44116;50.884;4.768;2023-04-03T07:55:21;11.4;;;7.9;;
58306;SDS011;44116;50.884;4.768;2023-04-03T07:57:20;12.3;;;7.6;;
58306;SDS011;44116;50.884;4.768;2023-04-03T07:59:20;11.8;;;8.0;;
58306;SDS011;44116;50.884;4.768;2023-04-03T08:01:19;12.3;;;7.6;;
58306;SDS011;44116;50.884;4.768;2023-04-03T08:05:20;14.5;;;8.0;;
58306;SDS011;44116;50.884;4.768;2023-04-03T08:07:18;10.0;;;7.2;;
58306;SDS011;44116;50.884;4.768;2023-04-03T08:09:17;13.7;;;8.2;;
58306;SDS011;44116;50.884;4.768;2023-04-03T08:11:17;13.7;;;7.5;;
58306;SDS011;44116;50.884;4.768;2023-04-03T08:13:16;13.7;;;7.6;;
58306;SDS011;44116;50.884;4.768;2023-04-03T08:15:16;10.8;;;6.9;;
58306;SDS011;44116;50.884;4.768;2023-04-03T08:17:15;13.9;;;7.3;;
58306;SDS011;44116;50.884;4.768;2023-04-03T08:19:16;12.2;;;6.9;;
58306;SDS011;44116;50.884;4.768;2023-04-03T08:21:14;11.2;;;6.3;;
58306;SDS011;44116;50.884;4.768;2023-04-03T08:23:14;10.0;;;6.7;;
58306;SDS011;44116;50.884;4.768;2023-04-03T08:25:13;14.6;;;7.2;;
58306;SDS011;44116;50.884;4.768;2023-04-03T08:27:13;12.3;;;6.9;;
58306;SDS011;44116;50.884;4.768;2023-04-03T08:29:13;10.7;;;5.9;;
58306;SDS011;44116;50.884;4.768;2023-04-03T08:31:14;10.2;;;6.0;;
58306;SDS011;44116;50.884;4.768;2023-04-03T08:35:12;10.5;;;5.6;;
58306;SDS011;44116;50.884;4.768;2023-04-03T08:39:11;8.9;;;5.3;;
58306;SDS011;44116;50.884;4.768;2023-04-03T08:43:24;9.5;;;5.1;;
58306;SDS011;44116;50.884;4.768;2023-04-03T08:45:10;9.0;;;5.6;;
58306;SDS011;44116;50.884;4.768;2023-04-03T08:47:18;10.1;;;5.4;;
58306;SDS011;44116;50.884;4.768;2023-04-03T08:49:10;8.1;;;4.9;;
58306;SDS011;44116;50.884;4.768;2023-04-03T08:51:12;11.9;;;5.2;;
58306;SDS011;44116;50.884;4.768;2023-04-03T08:53:13;9.1;;;4.8;;
58306;SDS011;44116;50.884;4.768;2023-04-03T08:55:17;8.8;;;4.6;;
58306;SDS011;44116;50.884;4.768;2023-04-03T08:57:06;8.2;;;4.2;;
58306;SDS011;44116;50.884;4.768;2023-04-03T08:59:10;7.6;;;4.1;;
58306;SDS011;44116;50.884;4.768;2023-04-03T09:03:05;7.9;;;4.0;;
58306;SDS011;44116;50.884;4.768;2023-04-03T09:05:11;9.4;;;3.7;;
58306;SDS011;44116;50.884;4.768;2023-04-03T09:07:09;7.4;;;3.8;;
58306;SDS011;44116;50.884;4.768;2023-04-03T09:09:12;10.6;;;4.4;;
58306;SDS011;44116;50.884;4.768;2023-04-03T09:11:09;9.3;;;4.0;;
58306;SDS011;44116;50.884;4.768;2023-04-03T09:13:06;8.1;;;3.7;;
58306;SDS011;44116;50.884;4.768;2023-04-03T09:15:09;9.1;;;4.2;;
58306;SDS011;44116;50.884;4.768;2023-04-03T09:17:04;10.8;;;4.0;;
58306;SDS011;44116;50.884;4.768;2023-04-03T09:19:09;8.6;;;3.4;;
58306;SDS011;44116;50.884;4.768;2023-04-03T09:21:08;6.7;;;4.0;;
58306;SDS011;44116;50.884;4.768;2023-04-03T09:23:14;8.3;;;3.7;;
58306;SDS011;44116;50.884;4.768;2023-04-03T09:27:04;9.1;;;4.6;;
58306;SDS011;44116;50.884;4.768;2023-04-03T09:29:02;9.1;;;3.7;;
58306;SDS011;44116;50.884;4.768;2023-04-03T09:31:00;7.3;;;3.6;;
58306;SDS011;44116;50.884;4.768;2023-04-03T09:32:59;9.8;;;4.4;;
58306;SDS011;44116;50.884;4.768;2023-04-03T09:35:01;9.5;;;3.8;;
58306;SDS011;44116;50.884;4.768;2023-04-03T09:39:03;8.7;;;3.9;;
58306;SDS011;44116;50.884;4.768;2023-04-03T09:41:04;6.7;;;4.2;;
58306;SDS011;44116;50.884;4.768;2023-04-03T09:42:58;7.3;;;3.7;;
58306;SDS011;44116;50.884;4.768;2023-04-03T09:44:58;9.7;;;4.0;;
58306;SDS011;44116;50.884;4.768;2023-04-03T09:46:57;9.1;;;4.1;;
58306;SDS011;44116;50.884;4.768;2023-04-03T09:48:57;8.1;;;3.8;;
58306;SDS011;44116;50.884;4.768;2023-04-03T09:50:59;7.2;;;3.6;;
58306;SDS011;44116;50.884;4.768;2023-04-03T09:52:55;7.7;;;3.9;;
58306;SDS011;44116;50.884;4.768;2023-04-03T09:55:06;7.6;;;3.6;;
58306;SDS011;44116;50.884;4.768;2023-04-03T09:56:54;9.2;;;3.8;;
58306;SDS011;44116;50.884;4.768;2023-04-03T09:59:08;8.3;;;4.1;;
58306;SDS011;44116;50.884;4.768;2023-04-03T10:00:54;9.6;;;3.9;;
58306;SDS011;44116;50.884;4.768;2023-04-03T10:02:54;5.9;;;3.5;;
58306;SDS011;44116;50.884;4.768;2023-04-03T10:06:53;7.9;;;4.3;;
58306;SDS011;44116;50.884;4.768;2023-04-03T10:08:58;5.8;;;3.0;;
58306;SDS011;44116;50.884;4.768;2023-04-03T10:11:06;7.8;;;3.2;;
58306;SDS011;44116;50.884;4.768;2023-04-03T10:13:04;9.7;;;3.6;;
58306;SDS011;44116;50.884;4.768;2023-04-03T10:14:56;6.4;;;3.4;;
58306;SDS011;44116;50.884;4.768;2023-04-03T10:16:58;7.3;;;3.3;;
58306;SDS011;44116;50.884;4.768;2023-04-03T10:19:00;9.7;;;3.9;;
58306;SDS011;44116;50.884;4.768;2023-04-03T10:20:52;8.9;;;3.3;;
58306;SDS011;44116;50.884;4.768;2023-04-03T10:22:59;5.1;;;2.8;;
58306;SDS011;44116;50.884;4.768;2023-04-03T10:24:54;8.0;;;2.9;;
58306;SDS011;44116;50.884;4.768;2023-04-03T10:26:56;6.7;;;2.8;;
58306;SDS011;44116;50.884;4.768;2023-04-03T10:28:53;5.8;;;2.6;;
58306;SDS011;44116;50.884;4.768;2023-04-03T10:30:51;7.9;;;2.9;;
58306;SDS011;44116;50.884;4.768;2023-04-03T10:32:57;7.5;;;2.7;;
58306;SDS011;44116;50.884;4.768;2023-04-03T10:34:48;5.2;;;2.8;;
58306;SDS011;44116;50.884;4.768;2023-04-03T10:36:52;5.5;;;2.2;;
58306;SDS011;44116;50.884;4.768;2023-04-03T10:38:51;7.4;;;2.4;;
58306;SDS011;44116;50.884;4.768;2023-04-03T10:40:52;5.9;;;2.5;;
58306;SDS011;44116;50.884;4.768;2023-04-03T10:42:49;6.4;;;2.7;;
58306;SDS011;44116;50.884;4.768;2023-04-03T10:44:55;5.8;;;2.4;;
58306;SDS011;44116;50.884;4.768;2023-04-03T10:46:47;4.7;;;1.9;;
58306;SDS011;44116;50.884;4.768;2023-04-03T10:48:55;4.7;;;2.2;;
58306;SDS011;44116;50.884;4.768;2023-04-03T10:50:51;5.1;;;1.9;;
58306;SDS011;44116;50.884;4.768;2023-04-03T10:52:49;5.4;;;2.2;;
58306;SDS011;44116;50.884;4.768;2023-04-03T10:54:46;5.2;;;2.0;;
58306;SDS011;44116;50.884;4.768;2023-04-03T10:56:44;5.9;;;2.1;;
58306;SDS011;44116;50.884;4.768;2023-04-03T10:58:44;5.0;;;2.3;;
58306;SDS011;44116;50.884;4.768;2023-04-03T11:02:48;5.5;;;2.0;;
58306;SDS011;44116;50.884;4.768;2023-04-03T11:04:42;5.4;;;2.3;;
58306;SDS011;44116;50.884;4.768;2023-04-03T11:08:44;6.8;;;2.1;;
58306;SDS011;44116;50.884;4.768;2023-04-03T11:10:43;6.3;;;2.2;;
58306;SDS011;44116;50.884;4.768;2023-04-03T11:12:42;6.6;;;2.1;;
58306;SDS011;44116;50.884;4.768;2023-04-03T11:16:42;4.6;;;2.0;;
58306;SDS011;44116;50.884;4.768;2023-04-03T11:18:42;4.8;;;2.4;;
58306;SDS011;44116;50.884;4.768;2023-04-03T11:20:38;6.0;;;2.0;;
58306;SDS011;44116;50.884;4.768;2023-04-03T11:22:41;3.5;;;1.7;;
58306;SDS011;44116;50.884;4.768;2023-04-03T11:24:39;5.7;;;2.1;;
58306;SDS011;44116;50.884;4.768;2023-04-03T11:26:39;4.1;;;1.7;;
58306;SDS011;44116;50.884;4.768;2023-04-03T11:28:37;6.5;;;2.1;;
58306;SDS011;44116;50.884;4.768;2023-04-03T11:30:41;4.0;;;1.6;;
58306;SDS011;44116;50.884;4.768;2023-04-03T11:34:37;6.0;;;1.9;;
58306;SDS011;44116;50.884;4.768;2023-04-03T11:36:40;6.7;;;2.2;;
58306;SDS011;44116;50.884;4.768;2023-04-03T11:38:36;4.4;;;2.0;;
58306;SDS011;44116;50.884;4.768;2023-04-03T11:40:38;5.8;;;2.1;;
58306;SDS011;44116;50.884;4.768;2023-04-03T11:42:36;4.1;;;1.8;;
58306;SDS011;44116;50.884;4.768;2023-04-03T11:44:35;4.9;;;2.0;;
58306;SDS011;44116;50.884;4.768;2023-04-03T11:46:51;8.2;;;2.5;;
58306;SDS011;44116;50.884;4.768;2023-04-03T11:48:50;6.3;;;2.0;;
58306;SDS011;44116;50.884;4.768;2023-04-03T11:50:43;4.4;;;1.8;;
58306;SDS011;44116;50.884;4.768;2023-04-03T11:56:31;4.2;;;1.9;;
58306;SDS011;44116;50.884;4.768;2023-04-03T11:58:32;3.0;;;1.6;;
58306;SDS011;44116;50.884;4.768;2023-04-03T12:02:36;3.9;;;1.9;;
58306;SDS011;44116;50.884;4.768;2023-04-03T12:04:31;5.0;;;1.6;;
58306;SDS011;44116;50.884;4.768;2023-04-03T12:08:30;5.0;;;1.6;;
58306;SDS011;44116;50.884;4.768;2023-04-03T12:10:28;2.2;;;1.3;;
58306;SDS011;44116;50.884;4.768;2023-04-03T12:12:31;3.7;;;1.4;;
58306;SDS011;44116;50.884;4.768;2023-04-03T12:14:28;5.0;;;1.9;;
58306;SDS011;44116;50.884;4.768;2023-04-03T12:16:33;4.6;;;1.6;;
58306;SDS011;44116;50.884;4.768;2023-04-03T12:18:42;3.9;;;1.7;;
58306;SDS011;44116;50.884;4.768;2023-04-03T12:26:27;3.3;;;1.3;;
58306;SDS011;44116;50.884;4.768;2023-04-03T12:28:26;3.8;;;1.4;;
58306;SDS011;44116;50.884;4.768;2023-04-03T12:30:28;2.4;;;1.3;;
58306;SDS011;44116;50.884;4.768;2023-04-03T12:34:38;3.5;;;1.4;;
58306;SDS011;44116;50.884;4.768;2023-04-03T12:36:28;3.4;;;1.3;;
58306;SDS011;44116;50.884;4.768;2023-04-03T12:40:26;3.3;;;1.4;;
58306;SDS011;44116;50.884;4.768;2023-04-03T12:42:35;4.7;;;1.5;;
58306;SDS011;44116;50.884;4.768;2023-04-03T12:44:33;3.4;;;1.2;;
58306;SDS011;44116;50.884;4.768;2023-04-03T12:46:24;4.1;;;1.8;;
58306;SDS011;44116;50.884;4.768;2023-04-03T12:48:25;3.1;;;1.5;;
58306;SDS011;44116;50.884;4.768;2023-04-03T12:50:23;4.3;;;1.9;;
58306;SDS011;44116;50.884;4.768;2023-04-03T12:52:30;5.0;;;2.0;;
58306;SDS011;44116;50.884;4.768;2023-04-03T12:54:23;5.6;;;2.1;;
58306;SDS011;44116;50.884;4.768;2023-04-03T12:56:23;4.3;;;1.7;;
58306;SDS011;44116;50.884;4.768;2023-04-03T12:58:22;5.6;;;2.0;;
58306;SDS011;44116;50.884;4.768;2023-04-03T13:00:29;4.2;;;1.8;;
58306;SDS011;44116;50.884;4.768;2023-04-03T13:02:22;3.7;;;1.7;;
58306;SDS011;44116;50.884;4.768;2023-04-03T13:04:19;4.5;;;1.8;;
58306;SDS011;44116;50.884;4.768;2023-04-03T13:06:21;6.1;;;2.1;;
58306;SDS011;44116;50.884;4.768;2023-04-03T13:08:18;3.8;;;1.8;;
58306;SDS011;44116;50.884;4.768;2023-04-03T13:10:18;4.6;;;2.0;;
58306;SDS011;44116;50.884;4.768;2023-04-03T13:14:19;3.3;;;1.4;;
58306;SDS011;44116;50.884;4.768;2023-04-03T13:16:17;4.4;;;2.1;;
58306;SDS011;44116;50.884;4.768;2023-04-03T13:18:27;4.8;;;1.9;;
58306;SDS011;44116;50.884;4.768;2023-04-03T13:20:20;4.3;;;1.5;;
58306;SDS011;44116;50.884;4.768;2023-04-03T13:22:25;6.0;;;1.9;;
58306;SDS011;44116;50.884;4.768;2023-04-03T13:24:15;6.0;;;1.7;;
58306;SDS011;44116;50.884;4.768;2023-04-03T13:28:18;3.9;;;1.8;;
58306;SDS011;44116;50.884;4.768;2023-04-03T13:30:20;5.9;;;1.7;;
58306;SDS011;44116;50.884;4.768;2023-04-03T13:32:18;2.8;;;1.5;;
58306;SDS011;44116;50.884;4.768;2023-04-03T13:34:17;3.8;;;1.7;;